Language selection

Features

My Weather Profile Weather Topics  | 

Pacific - North Coast: Past 24 Hour Conditions

 

East Dellwood - 46207

02:00 AM PST 17 November 2019Buoy position: 50.88N 129.93W
Disclaimer

This table is a summary of hourly weather conditions for the past 24 hours.
Please note that these observations might not always be representative of weather conditions over their associated marine area.

Date / Time
(PST)
Wind(knots) Wave height(m) Wave period(s) Pressure(kPa) Air tempC) Water tempC)
17 November 2019
2:00 SSW 17 gust 22 4.2 12.0 100.5 13 11
1:00 SSW 17 gust 23 4.3 11.0 100.5 13 11
0:00 SSW 19 gust 23 4.3 10.0 100.4 13 12
16 November 2019
23:00 SSW 19 gust 25 4.6 10.0 100.4 13 12
22:00 SSW 22 gust 25 4.5 9.0 100.3 13 12
21:00 S 22 gust 27 4.7 9.0 100.3 13 12
20:00 S 23 gust 29 4.3 10.0 100.3 13 12
19:00 S 27 gust 33 4.8 10.0 100.2 13 12
18:00 S 25 gust 33 4.6 8.0 100.2 13 11
17:00 S 23 gust 31 4.6 10.0 100.2 13 11
16:00 SSW 23 gust 29 4.5 9.0 100.3 13 11
15:00 SSW 23 gust 27 4.7 10.0 100.2 14 11
14:00 S 19 gust 25 4.9 10.0 100.3 13 11
13:00 S 23 gust 29 5.1 9.0 100.4 13 12
12:00 SSW 19 gust 23 4.8 9.0 100.4 13 11
11:00 S 23 gust 29 4.9 9.0 100.4 13 11
10:00 S 22 gust 27 5.2 9.0 100.4 13 12
9:00 SSE 19 gust 25 4.7 8.0 100.5 13 12
8:00 SSE 27 gust 35 4.9 8.0 100.5 12 12
7:00 SE 27 gust 35 5.2 8.0 100.5 12 11
6:00 SE 33 gust 46 4.5 7.0 100.5 12 12
5:00 SE 33 gust 41 4.4 7.0 100.7 11 12
4:00 SE 31 gust 41 4.2 14.0 100.9 12 12
3:00 SE 31 gust 39 3.8 14.0 101.1 12 12
2:00 SE 27 gust 35 3.7 14.0 101.3 12 12

Zoom-in to make a selection

Map of Pacific - North Coast marine weather areas Middle Nomad - 46004 South Nomad - 46036 Dixon Entrance Central - 46145 South Moresby - 46147 Nanakwa Shoal - 46181 North Hecate Strait - 46183 North Nomad - 46184 South Hecate Strait - 46185 West Sea Otter - 46204 West Dixon Entrance - 46205 East Dellwood - 46207 West Moresby - 46208 Sartine Island Cape St.James Kindakun Rocks Langara Island Masset Municipal Airport Rose Spit Sandspit Airport Bella Bella Airport Bella Coola Airport Bonilla Island Cathedral Point Cumshewa Island Grey Islet Holland Rock Lucy Islands Lightstation Prince Rupert Airport
Legend:
buoy Buoy
land station Land Station

Pacific - North Coast Area

Another Region

What we are doing

Date modified: